Aviation Digital Data Service (ADDS)

Output produced by METARs form (0539 UTC 16 February 2019)
found at http://www.aviationweather.gov/metar/data/
 
Forecast for: DNBE (BENIN CITY(CIV/M, NG)
Text: TAF DNBE 160350Z 1606/1712 VRB02KT 2500 HZ NSC
Forecast period: 0600 to 0800 UTC 16 February 2019
Forecast type: FROM: standard forecast or significant change
Winds: variable direction winds at 2 MPH (2 knots; 1.0 m/s)
Visibility: 1.55 miles (2.49 km)
Ceiling: unknown
Clouds: missing
Weather: HZ  (haze)
Text: TEMPO 1606/1609 1500
Forecast period: 0600 to 0900 UTC 16 February 2019
Forecast type: TEMPORARY: The following changes expected for less than half the time period
Visibility: 0.93 miles (1.50 km)
Ceiling: unknown
Clouds: missing
Weather: no significant weather forecast for this period
Text: BECMG 1608/1610 07010KT
Forecast period: 0800 to 1700 UTC 16 February 2019
Forecast type: BECOMING: Conditions expected to become as follows by 1000 UTC 16 February 2019
Winds: from the ENE (70 degrees) at 12 MPH (10 knots; 5.1 m/s)
Visibility: 1.55 miles (2.49 km)
Ceiling: unknown
Clouds: missing
Weather: HZ  (haze)
Text: BECMG 1617/1619 VRB02KT
Forecast period: 1700 UTC 16 February 2019 to 1200 UTC 17 February 2019
Forecast type: BECOMING: Conditions expected to become as follows by 1900 UTC 16 February 2019
Winds: variable direction winds at 2 MPH (2 knots; 1.0 m/s)
Visibility: 1.55 miles (2.49 km)
Ceiling: unknown
Clouds: missing
Weather: HZ  (haze)